Time;durP1;ratioP1;P1;durP2;ratioP2;P2;SDS_P1;SDS_P2;PMS_P1;PMS_P2;Temp;Humidity;BMP_temperature;BMP_pressure;BME280_temperature;BME280_humidity;BME280_pressure;Samples;Min_cycle;Max_cycle;Signal;HPM_P1;HPM_P2
2022/02/16 00:01:57;;;;;;;40.40;33.90;;;23.70;98.10;;;;;;1732193;82;21147;-83
2022/02/16 00:04:28;;;;;;;39.67;34.05;;;23.70;98.10;;;;;;1727953;83;21247;-81
2022/02/16 00:06:59;;;;;;;40.55;34.90;;;23.80;98.20;;;;;;1731044;83;21178;-82
2022/02/16 00:09:30;;;;;;;39.80;34.08;;;23.80;98.20;;;;;;1727576;83;21213;-81
2022/02/16 00:12:01;;;;;;;38.85;33.40;;;23.70;98.30;;;;;;1731815;83;21159;-81
2022/02/16 00:14:32;;;;;;;37.98;33.70;;;23.80;98.30;;;;;;1732479;81;21218;-82
2022/02/16 00:17:03;;;;;;;42.55;35.85;;;23.80;98.20;;;;;;1731408;83;21653;-81
2022/02/16 00:19:33;;;;;;;43.98;33.67;;;23.80;98.30;;;;;;1730908;81;21151;-82
2022/02/16 00:22:05;;;;;;;38.85;34.33;;;23.80;98.30;;;;;;1728013;83;21129;-83
2022/02/16 00:24:36;;;;;;;42.55;34.73;;;23.80;98.20;;;;;;1731550;81;21092;-82
2022/02/16 00:27:06;;;;;;;41.60;32.33;;;23.80;98.20;;;;;;1725225;83;21174;-82
2022/02/16 00:29:37;;;;;;;39.63;34.03;;;23.80;98.10;;;;;;1732516;83;21678;-82
2022/02/16 00:32:09;;;;;;;43.33;34.85;;;23.80;98.10;;;;;;1726327;83;22160;-82
2022/02/16 00:34:40;;;;;;;38.65;34.45;;;23.80;97.90;;;;;;1715478;81;21587;-82
2022/02/16 00:37:11;;;;;;;35.88;32.08;;;23.80;97.90;;;;;;1727210;83;21139;-82
2022/02/16 00:39:42;;;;;;;34.70;30.23;;;23.80;97.80;;;;;;1732448;81;21531;-82
2022/02/16 00:42:12;;;;;;;34.35;28.77;;;23.80;97.70;;;;;;1731905;83;21179;-82
2022/02/16 00:44:43;;;;;;;35.70;29.72;;;23.70;97.70;;;;;;1730657;81;21143;-82
2022/02/16 00:47:14;;;;;;;35.52;29.57;;;23.70;97.80;;;;;;1729235;83;21251;-82
2022/02/16 00:49:45;;;;;;;35.60;30.05;;;23.70;97.90;;;;;;1724865;81;21689;-82
2022/02/16 00:52:17;;;;;;;36.53;30.10;;;23.70;98.10;;;;;;1732046;80;21681;-82
2022/02/16 00:54:47;;;;;;;40.88;33.78;;;23.70;98.30;;;;;;1726094;81;21226;-82
2022/02/16 00:57:18;;;;;;;32.25;28.55;;;23.70;98.20;;;;;;1727971;83;21164;-82
2022/02/16 00:59:50;;;;;;;30.60;26.77;;;23.70;98.30;;;;;;1727301;83;21646;-84
2022/02/16 01:02:20;;;;;;;31.57;27.55;;;23.70;98.30;;;;;;1729584;83;21213;-83
2022/02/16 01:04:51;;;;;;;34.67;27.93;;;23.60;98.20;;;;;;1729911;83;21167;-82
2022/02/16 01:07:22;;;;;;;33.83;27.55;;;23.60;98.30;;;;;;1732186;83;21163;-82
2022/02/16 01:09:53;;;;;;;30.88;27.32;;;23.60;98.40;;;;;;1729220;83;21120;-82
2022/02/16 01:12:24;;;;;;;32.17;27.50;;;23.60;98.40;;;;;;1725783;83;21222;-82
2022/02/16 01:14:56;;;;;;;29.42;26.35;;;23.50;98.40;;;;;;1720004;83;21652;-82
2022/02/16 01:17:26;;;;;;;30.23;27.05;;;23.50;98.50;;;;;;1729316;81;21209;-83
2022/02/16 01:19:57;;;;;;;28.62;25.72;;;23.60;98.50;;;;;;1727218;81;21265;-82
2022/02/16 01:22:28;;;;;;;31.12;26.57;;;23.60;98.50;;;;;;1724697;81;21178;-81
2022/02/16 01:24:59;;;;;;;27.20;24.27;;;23.50;98.50;;;;;;1726603;83;21210;-81
2022/02/16 01:27:31;;;;;;;25.80;22.87;;;23.50;98.30;;;;;;1728189;83;21635;-84
2022/02/16 01:30:02;;;;;;;27.17;22.22;;;23.60;98.00;;;;;;1716407;83;21210;-82
2022/02/16 01:32:34;;;;;;;24.72;21.70;;;23.50;97.90;;;;;;1727319;81;21607;-81
2022/02/16 01:35:06;;;;;;;28.10;23.32;;;23.60;97.80;;;;;;1731201;81;21171;-81
2022/02/16 01:37:37;;;;;;;27.58;23.95;;;23.60;97.80;;;;;;1730570;83;21226;-82
2022/02/16 01:40:09;;;;;;;26.45;22.10;;;23.60;97.80;;;;;;1724065;81;21182;-82
2022/02/16 01:42:40;;;;;;;26.97;19.77;;;23.60;97.60;;;;;;1727829;81;21215;-84
2022/02/16 01:45:12;;;;;;;24.95;20.43;;;23.60;97.30;;;;;;1731664;81;21217;-83
2022/02/16 01:47:43;;;;;;;24.40;19.70;;;23.70;97.00;;;;;;1732353;81;21206;-82
2022/02/16 01:50:13;;;;;;;24.72;19.98;;;23.70;96.90;;;;;;1720919;81;21188;-83
2022/02/16 01:52:44;;;;;;;27.10;23.25;;;23.70;96.70;;;;;;1724472;83;21265;-82
2022/02/16 01:55:16;;;;;;;19.95;17.17;;;23.70;96.50;;;;;;1702865;83;21204;-83
2022/02/16 01:57:49;;;;;;;21.70;16.70;;;23.70;96.80;;;;;;1722592;83;21176;-82
2022/02/16 02:00:20;;;;;;;19.52;16.15;;;23.70;96.30;;;;;;1723711;81;21251;-82
2022/02/16 02:02:50;;;;;;;21.87;18.17;;;23.80;96.00;;;;;;1720922;82;21296;-84
2022/02/16 02:05:26;;;;;;;22.90;18.32;;;23.80;95.90;;;;;;1725359;82;21172;-82
2022/02/16 02:07:53;;;;;;;23.85;18.75;;;23.80;96.00;;;;;;1715649;81;21332;-82
2022/02/16 02:10:24;;;;;;;23.73;19.30;;;23.90;96.50;;;;;;1702469;83;21153;-82
2022/02/16 02:13:03;;;;;;;26.15;20.65;;;23.90;96.20;;;;;;1725039;82;21276;-81
2022/02/16 02:15:36;;;;;;;27.98;21.85;;;23.90;96.10;;;;;;1695954;83;21788;-82
2022/02/16 02:18:15;;;;;;;26.57;20.75;;;23.90;96.00;;;;;;1696423;84;21695;-81
2022/02/16 02:21:11;;;;;;;24.37;20.62;;;23.90;96.00;;;;;;1706215;83;21662;-82
2022/02/16 02:23:42;;;;;;;25.45;21.25;;;23.90;95.80;;;;;;1732802;81;21208;-81
2022/02/16 02:26:18;;;;;;;24.18;21.10;;;23.90;95.90;;;;;;1705091;83;21242;-82
2022/02/16 02:29:56;;;;;;;25.32;19.87;;;23.90;96.00;;;;;;1700064;83;21771;-82
2022/02/16 02:31:37;;;;;;;24.55;20.90;;;23.90;95.80;;;;;;1692243;82;21310;-82
2022/02/16 02:34:08;;;;;;;24.30;19.30;;;23.90;95.80;;;;;;1727038;82;21211;-82
2022/02/16 02:36:39;;;;;;;22.77;18.67;;;23.90;95.80;;;;;;1720139;82;21970;-82
2022/02/16 02:39:10;;;;;;;23.42;19.48;;;23.90;95.70;;;;;;1724821;83;21705;-82
2022/02/16 02:41:41;;;;;;;24.70;18.23;;;23.90;95.70;;;;;;1717541;82;21186;-83
2022/02/16 02:44:12;;;;;;;22.55;17.75;;;23.90;95.50;;;;;;1729133;82;21186;-83
2022/02/16 02:46:44;;;;;;;22.30;16.75;;;23.90;95.30;;;;;;1724521;82;21131;-83
2022/02/16 02:49:15;;;;;;;20.08;15.50;;;24.00;95.10;;;;;;1741944;82;21100;-84
2022/02/16 02:51:48;;;;;;;21.07;15.98;;;23.90;94.80;;;;;;1739022;82;21139;-84
2022/02/16 02:54:19;;;;;;;20.17;15.50;;;23.90;94.40;;;;;;1751773;82;21541;-84
2022/02/16 02:56:50;;;;;;;20.70;16.12;;;23.90;94.50;;;;;;1719660;82;21655;-84
2022/02/16 02:59:25;;;;;;;18.32;14.70;;;23.90;94.60;;;;;;1753055;82;21179;-83
2022/02/16 03:01:55;;;;;;;17.42;14.40;;;24.00;94.60;;;;;;1720075;82;21163;-83
2022/02/16 03:04:30;;;;;;;21.70;15.85;;;24.00;94.40;;;;;;1750215;81;21171;-84
2022/02/16 03:07:00;;;;;;;20.12;15.32;;;23.90;94.40;;;;;;1753917;80;21183;-86
2022/02/16 03:09:32;;;;;;;18.90;15.10;;;24.00;94.50;;;;;;1721628;82;21207;-84
2022/02/16 03:12:03;;;;;;;19.15;15.28;;;24.00;94.60;;;;;;1741409;80;21689;-84
2022/02/16 03:14:45;;;;;;;19.70;14.53;;;24.00;94.40;;;;;;1716470;82;21168;-82
2022/02/16 03:17:17;;;;;;;20.88;15.10;;;24.00;94.30;;;;;;1751608;80;21171;-83
2022/02/16 03:19:48;;;;;;;20.35;15.40;;;24.00;94.30;;;;;;1719265;82;21239;-82
2022/02/16 03:22:19;;;;;;;20.00;15.63;;;24.00;94.20;;;;;;1752776;80;21170;-82
2022/02/16 03:24:50;;;;;;;19.00;16.23;;;24.00;94.10;;;;;;1718175;82;21152;-83
2022/02/16 03:27:21;;;;;;;21.33;15.05;;;24.00;94.30;;;;;;1751126;82;21788;-82
2022/02/16 03:29:54;;;;;;;21.25;16.95;;;24.00;94.40;;;;;;1718449;83;21607;-84
2022/02/16 03:32:25;;;;;;;18.95;16.23;;;24.10;94.40;;;;;;1746915;80;21242;-84
2022/02/16 03:34:55;;;;;;;19.17;15.58;;;24.00;94.50;;;;;;1707071;83;21099;-83
2022/02/16 03:37:29;;;;;;;21.07;16.35;;;24.10;94.50;;;;;;1714422;83;21202;-83
2022/02/16 03:40:00;;;;;;;18.12;15.03;;;24.00;94.50;;;;;;1736303;82;21155;-83
2022/02/16 03:42:35;;;;;;;17.17;13.70;;;24.10;94.30;;;;;;1715993;82;21737;-83
2022/02/16 03:45:06;;;;;;;17.00;13.78;;;24.10;94.20;;;;;;1745799;81;21213;-83
2022/02/16 03:47:38;;;;;;;17.45;15.38;;;24.10;94.00;;;;;;1736738;80;21167;-83
2022/02/16 03:50:09;;;;;;;19.42;14.55;;;24.10;94.10;;;;;;1742936;80;21096;-83
2022/02/16 03:52:40;;;;;;;19.20;13.48;;;24.10;94.20;;;;;;1710870;82;21627;-83
2022/02/16 03:55:11;;;;;;;18.50;13.62;;;24.10;94.10;;;;;;1752265;80;21183;-84
2022/02/16 03:57:43;;;;;;;14.80;11.70;;;24.10;94.00;;;;;;1713981;81;21151;-84
2022/02/16 04:00:15;;;;;;;16.10;12.07;;;24.10;94.00;;;;;;1750437;80;21174;-83
2022/02/16 04:02:46;;;;;;;17.62;11.70;;;24.20;93.90;;;;;;1707504;82;21161;-84
2022/02/16 04:05:17;;;;;;;15.28;11.60;;;24.20;93.80;;;;;;1752211;80;21629;-83
2022/02/16 04:07:47;;;;;;;16.15;11.75;;;24.20;93.60;;;;;;1710510;83;21246;-84
2022/02/16 04:10:18;;;;;;;17.73;13.78;;;24.20;93.70;;;;;;1738664;81;21717;-82
2022/02/16 04:12:51;;;;;;;19.25;13.58;;;24.20;93.70;;;;;;1711112;83;21199;-83
2022/02/16 04:15:25;;;;;;;18.90;13.98;;;24.30;93.80;;;;;;1693968;82;21267;-83
2022/02/16 04:17:56;;;;;;;22.75;14.10;;;24.30;94.10;;;;;;1744207;82;21135;-83
2022/02/16 04:20:26;;;;;;;20.43;14.38;;;24.40;93.90;;;;;;1718893;83;21218;-83
2022/02/16 04:22:57;;;;;;;17.82;13.55;;;24.40;93.90;;;;;;1752564;82;21186;-83
2022/02/16 04:25:28;;;;;;;19.90;15.32;;;24.40;93.90;;;;;;1695869;83;21273;-83
2022/02/16 04:28:05;;;;;;;20.00;14.68;;;24.50;93.80;;;;;;1729387;80;21195;-83
2022/02/16 04:30:34;;;;;;;18.92;14.40;;;24.50;93.70;;;;;;1749154;82;21206;-83
2022/02/16 04:33:05;;;;;;;18.23;13.90;;;24.50;93.50;;;;;;1726306;82;21197;-83
2022/02/16 04:35:36;;;;;;;17.62;14.05;;;24.60;93.60;;;;;;1715105;83;21162;-83
2022/02/16 04:38:08;;;;;;;21.12;14.25;;;24.60;93.50;;;;;;1748564;81;21213;-83
2022/02/16 04:40:39;;;;;;;20.32;14.03;;;24.60;93.30;;;;;;1743869;82;21710;-83
2022/02/16 04:43:11;;;;;;;19.67;13.32;;;24.60;93.40;;;;;;1717925;83;21132;-83
2022/02/16 04:45:42;;;;;;;17.45;13.32;;;24.60;93.30;;;;;;1742233;81;21226;-82
2022/02/16 04:48:13;;;;;;;16.80;13.55;;;24.60;93.50;;;;;;1714895;83;21167;-83
2022/02/16 04:50:44;;;;;;;18.42;13.95;;;24.60;93.50;;;;;;1707559;83;21175;-82
2022/02/16 04:53:15;;;;;;;19.70;14.47;;;24.60;93.30;;;;;;1746486;82;21085;-82
2022/02/16 04:55:47;;;;;;;18.85;13.90;;;24.60;93.40;;;;;;1717091;83;21199;-84
2022/02/16 04:58:18;;;;;;;17.32;13.88;;;24.60;93.30;;;;;;1738513;80;21095;-84
2022/02/16 05:00:48;;;;;;;18.73;14.20;;;24.60;93.50;;;;;;1707179;83;21175;-82
2022/02/16 05:03:19;;;;;;;19.25;14.40;;;24.60;93.50;;;;;;1744502;80;21168;-83
2022/02/16 05:05:50;;;;;;;18.35;13.43;;;24.60;93.50;;;;;;1755169;80;21182;-82
2022/02/16 05:08:21;;;;;;;17.17;13.72;;;24.60;93.60;;;;;;1715146;83;21223;-82
2022/02/16 05:10:53;;;;;;;17.75;13.80;;;24.60;93.60;;;;;;1752144;82;21639;-83
2022/02/16 05:13:24;;;;;;;18.77;14.43;;;24.60;93.60;;;;;;1704301;83;21257;-83
2022/02/16 05:15:54;;;;;;;20.97;14.47;;;24.60;93.60;;;;;;1750908;82;21324;-82
2022/02/16 05:18:25;;;;;;;18.30;13.70;;;24.60;93.70;;;;;;1716265;83;21238;-83
2022/02/16 05:20:56;;;;;;;16.65;13.90;;;24.60;93.70;;;;;;1746405;81;21131;-82
2022/02/16 05:23:46;;;;;;;15.98;13.00;;;24.60;93.70;;;;;;1700120;83;21698;-83
2022/02/16 05:26:16;;;;;;;16.95;13.93;;;24.60;93.70;;;;;;1793602;80;21731;-83
2022/02/16 05:28:47;;;;;;;19.15;13.35;;;24.50;93.50;;;;;;1798306;78;21217;-84
2022/02/16 05:31:18;;;;;;;16.87;13.00;;;24.60;93.50;;;;;;1793051;80;21146;-82
2022/02/16 05:33:49;;;;;;;20.40;12.78;;;24.60;93.50;;;;;;1794292;80;21660;-82
2022/02/16 05:36:20;;;;;;;16.97;12.53;;;24.60;94.00;;;;;;1793249;80;21174;-84
2022/02/16 05:38:50;;;;;;;20.70;13.55;;;24.60;93.50;;;;;;1793156;78;21640;-83
2022/02/16 05:41:21;;;;;;;18.45;13.00;;;24.50;93.50;;;;;;1792193;80;21198;-82
2022/02/16 05:43:52;;;;;;;13.98;11.33;;;24.60;93.70;;;;;;1794103;80;21158;-83
2022/02/16 05:46:24;;;;;;;15.90;12.00;;;24.50;93.50;;;;;;1799449;78;21332;-82
2022/02/16 05:48:55;;;;;;;16.35;11.83;;;24.50;93.60;;;;;;1800180;78;21260;-83
2022/02/16 05:51:25;;;;;;;13.72;12.23;;;24.50;93.70;;;;;;1799405;77;21150;-82
2022/02/16 05:53:56;;;;;;;19.05;13.00;;;24.40;93.70;;;;;;1801697;77;21150;-84
2022/02/16 05:56:27;;;;;;;14.90;12.00;;;24.40;94.00;;;;;;1778806;78;21189;-82
2022/02/16 05:59:00;;;;;;;15.00;11.85;;;24.40;93.80;;;;;;1795789;77;21198;-83
2022/02/16 06:01:31;;;;;;;17.70;12.82;;;24.40;93.70;;;;;;1794620;80;21242;-82
2022/02/16 06:04:02;;;;;;;15.35;12.15;;;24.40;93.70;;;;;;1795835;77;21216;-81
2022/02/16 06:06:33;;;;;;;13.90;12.20;;;24.40;93.80;;;;;;1794423;80;21633;-82
2022/02/16 06:09:05;;;;;;;17.50;12.82;;;24.40;93.80;;;;;;1757498;79;21112;-82
2022/02/16 06:11:36;;;;;;;16.67;12.33;;;24.40;93.80;;;;;;1792227;80;21157;-81
2022/02/16 06:14:12;;;;;;;18.07;13.32;;;24.40;94.00;;;;;;1791696;78;21240;-81
2022/02/16 06:16:39;;;;;;;16.42;12.23;;;24.30;94.10;;;;;;1787402;78;21636;-83
2022/02/16 06:19:23;;;;;;;16.15;12.95;;;24.40;94.10;;;;;;1794966;79;21245;-83
2022/02/16 06:21:54;;;;;;;19.35;11.68;;;24.40;94.10;;;;;;1793834;78;21240;-82
2022/02/16 06:24:27;;;;;;;15.23;12.65;;;24.40;94.10;;;;;;1794814;78;21099;-83
2022/02/16 06:26:59;;;;;;;22.90;13.03;;;24.40;94.10;;;;;;1798881;79;21198;-82
2022/02/16 06:29:30;;;;;;;22.73;11.97;;;24.40;94.10;;;;;;1790903;79;21151;-83
2022/02/16 06:32:04;;;;;;;15.65;12.63;;;24.30;94.10;;;;;;1786872;79;21118;-83
2022/02/16 06:34:35;;;;;;;17.50;12.47;;;24.30;94.50;;;;;;1791108;80;21072;-83
2022/02/16 06:37:06;;;;;;;16.32;12.73;;;24.20;94.50;;;;;;1799510;79;21276;-84
2022/02/16 06:39:38;;;;;;;16.90;12.95;;;24.20;95.10;;;;;;1795871;79;21185;-83
2022/02/16 06:42:09;;;;;;;17.77;14.65;;;24.20;95.50;;;;;;1791222;79;21206;-84
2022/02/16 06:44:40;;;;;;;15.98;14.28;;;24.20;95.70;;;;;;1777297;79;21135;-82
2022/02/16 06:47:11;;;;;;;23.67;16.40;;;24.20;95.80;;;;;;1786352;79;21583;-82
2022/02/16 06:49:43;;;;;;;19.45;16.00;;;24.20;95.90;;;;;;1790924;79;21126;-83
2022/02/16 06:52:18;;;;;;;22.90;17.07;;;24.20;95.70;;;;;;1774736;80;21623;-84
2022/02/16 06:54:52;;;;;;;23.60;18.05;;;24.20;96.30;;;;;;1775622;80;21197;-83
2022/02/16 06:57:27;;;;;;;17.90;15.65;;;24.20;96.50;;;;;;1783930;79;21146;-83
2022/02/16 06:59:58;;;;;;;18.60;15.72;;;24.20;96.20;;;;;;1779464;80;21728;-81
2022/02/16 07:02:30;;;;;;;20.92;15.68;;;24.20;96.30;;;;;;1752623;82;21187;-83
2022/02/16 07:05:02;;;;;;;17.45;15.65;;;24.20;96.40;;;;;;1700865;84;21223;-84
2022/02/16 07:07:39;;;;;;;21.35;17.10;;;24.20;96.50;;;;;;1670780;83;21201;-82
2022/02/16 07:10:10;;;;;;;23.55;16.70;;;24.20;96.60;;;;;;1692000;84;21240;-84
2022/02/16 07:13:06;;;;;;;22.48;18.05;;;24.20;96.70;;;;;;1699906;84;21287;-82
2022/02/16 07:15:18;;;;;;;23.00;17.23;;;24.10;96.70;;;;;;1702086;83;21655;-82
2022/02/16 07:17:50;;;;;;;18.48;16.17;;;24.10;96.70;;;;;;1706188;84;21310;-83
2022/02/16 07:20:22;;;;;;;20.40;17.55;;;24.10;96.70;;;;;;1694158;83;21583;-83
2022/02/16 07:22:54;;;;;;;22.60;16.70;;;24.10;96.50;;;;;;1698134;84;21200;-83
2022/02/16 07:25:27;;;;;;;20.15;16.85;;;24.10;96.40;;;;;;1678312;82;21252;-83
2022/02/16 07:28:00;;;;;;;23.25;17.05;;;24.20;96.20;;;;;;1686255;84;21209;-81
2022/02/16 07:30:35;;;;;;;20.50;15.85;;;24.20;96.60;;;;;;1705333;84;21222;-82
2022/02/16 07:33:08;;;;;;;22.32;16.73;;;24.20;96.90;;;;;;1684130;84;21194;-84
2022/02/16 07:35:38;;;;;;;18.62;15.78;;;24.20;96.90;;;;;;1695260;84;21223;-82
2022/02/16 07:39:11;;;;;;;21.85;17.82;;;24.30;96.80;;;;;;1707239;84;21235;-81
2022/02/16 07:40:57;;;;;;;18.07;16.07;;;24.30;96.90;;;;;;1662092;83;21426;-83
2022/02/16 07:43:29;;;;;;;20.05;15.23;;;24.30;96.80;;;;;;1706895;83;21223;-83
2022/02/16 07:46:20;;;;;;;;;;;;;;;;;;;;;
2022/02/16 07:48:46;;;;;;;16.32;12.93;;;24.40;96.80;;;;;;1692858;83;21194;-82
2022/02/16 07:51:31;;;;;;;16.27;13.05;;;24.40;96.60;;;;;;1700042;84;21226;-82
2022/02/16 07:54:01;;;;;;;16.30;13.03;;;24.50;96.20;;;;;;1697843;83;21085;-82
2022/02/16 07:56:36;;;;;;;18.45;14.30;;;24.60;95.90;;;;;;1708042;83;21198;-81
2022/02/16 07:59:08;;;;;;;16.32;11.68;;;24.60;96.10;;;;;;1707484;82;21185;-83
2022/02/16 08:01:43;;;;;;;16.12;12.23;;;24.60;96.00;;;;;;1698715;83;21203;-83
2022/02/16 08:04:17;;;;;;;15.60;11.75;;;24.60;95.70;;;;;;1753686;80;21596;-82
2022/02/16 08:06:48;;;;;;;18.77;12.05;;;24.60;95.90;;;;;;1738322;82;21177;-83
2022/02/16 08:09:22;;;;;;;19.50;12.90;;;24.70;95.50;;;;;;1736241;82;21149;-83
2022/02/16 08:11:52;;;;;;;15.60;12.95;;;24.70;95.30;;;;;;1705592;84;21175;-82
2022/02/16 08:14:24;;;;;;;13.22;11.53;;;24.70;95.20;;;;;;1732806;82;22122;-83
2022/02/16 08:16:56;;;;;;;15.65;11.45;;;24.70;95.30;;;;;;1723772;83;21153;-82
2022/02/16 08:19:27;;;;;;;13.45;11.35;;;24.80;95.30;;;;;;1678807;85;21195;-81
2022/02/16 08:21:58;;;;;;;14.23;10.75;;;24.80;95.10;;;;;;1683553;84;21638;-81
2022/02/16 08:24:29;;;;;;;11.93;10.55;;;24.80;95.00;;;;;;1733018;83;21137;-83
2022/02/16 08:27:02;;;;;;;14.63;9.75;;;24.80;94.80;;;;;;1729808;80;21122;-83
2022/02/16 08:29:35;;;;;;;36.15;12.23;;;24.80;94.50;;;;;;1755855;80;21134;-82
2022/02/16 08:32:06;;;;;;;31.65;10.95;;;24.80;94.60;;;;;;1777008;79;21115;-81
2022/02/16 08:34:37;;;;;;;172.28;23.95;;;24.80;94.40;;;;;;1780948;80;21216;-83
2022/02/16 08:37:08;;;;;;;24.85;11.70;;;24.80;94.50;;;;;;1780405;80;21213;-81
2022/02/16 08:39:43;;;;;;;35.20;11.25;;;24.80;94.50;;;;;;1750784;80;21194;-82
2022/02/16 08:42:15;;;;;;;;;;;24.80;94.40;;;;;;1779751;80;21204;-84
2022/02/16 08:44:46;;;;;;;18.52;10.28;;;24.80;94.40;;;;;;1791773;79;20220;-84
2022/02/16 08:47:48;;;;;;;22.05;10.05;;;24.80;94.50;;;;;;1787156;79;21735;-83
2022/02/16 08:50:42;;;;;;;20.02;13.05;;;24.80;94.40;;;;;;1780193;80;21746;-82
2022/02/16 08:53:13;;;;;;;17.45;11.68;;;24.80;94.50;;;;;;1781133;80;21231;-83
2022/02/16 08:55:44;;;;;;;20.90;10.80;;;24.90;94.40;;;;;;1779783;80;21296;-82
2022/02/16 08:58:16;;;;;;;17.10;10.80;;;24.80;94.50;;;;;;1780709;80;21172;-83
2022/02/16 09:00:51;;;;;;;14.07;11.18;;;24.80;95.00;;;;;;1774430;80;21204;-83
2022/02/16 09:03:31;;;;;;;;;;;;;;;;;;;;;
2022/02/16 09:10:11;;;;;;;12.13;10.35;;;24.80;94.60;;;;;;1756310;81;21154;-83
2022/02/16 09:15:29;;;;;;;15.38;11.28;;;24.70;94.60;;;;;;1582241;90;21631;-81
2022/02/16 09:18:17;;;;;;;10.95;9.83;;;24.80;94.90;;;;;;1940297;73;22765;-83
2022/02/16 09:20:50;;;;;;;11.68;9.45;;;24.80;94.70;;;;;;1891598;75;21132;-82
2022/02/16 09:23:39;;;;;;;13.40;10.23;;;24.80;94.50;;;;;;1898010;75;21206;-82
2022/02/16 09:26:33;;;;;;;;;;;;;;;;;;;;;
2022/02/16 09:29:21;;;;;;;11.57;9.83;;;24.80;94.50;;;;;;1797670;79;21132;-83
2022/02/16 09:31:55;;;;;;;12.05;10.68;;;24.80;94.50;;;;;;1778580;79;21208;-83
2022/02/16 09:34:28;;;;;;;11.75;10.53;;;24.80;94.40;;;;;;1779395;80;21179;-83
2022/02/16 09:37:12;;;;;;;;;;;;;;;;;;;;;
2022/02/16 09:39:59;;;;;;;10.63;9.25;;;24.80;94.10;;;;;;1749893;80;21183;-83
2022/02/16 09:43:17;;;;;;;12.40;9.70;;;24.70;94.10;;;;;;1749031;80;21222;-82
2022/02/16 09:46:18;;;;;;;13.35;10.13;;;24.70;94.30;;;;;;1780497;77;21140;-81
2022/02/16 09:48:55;;;;;;;14.87;11.22;;;24.80;94.70;;;;;;1800158;79;21159;-81
2022/02/16 09:51:53;;;;;;;;;;;;;;;;;;;;;
2022/02/16 09:54:49;;;;;;;;;;;;;;;;;;;;;
2022/02/16 09:59:31;;;;;;;;;;;;;;;;;;;;;
2022/02/16 10:00:59;;;;;;;13.32;11.73;;;24.80;94.40;;;;;;1690140;84;21116;-85
2022/02/16 10:07:01;;;;;;;13.98;10.88;;;24.60;94.40;;;;;;1624083;86;21771;-83
2022/02/16 10:10:05;;;;;;;;;;;;;;;;;;;;;
2022/02/16 10:23:28;;;;;;;16.95;12.33;;;24.60;94.60;;;;;;1949791;73;22099;-80
2022/02/16 10:25:58;;;;;;;14.43;11.50;;;24.50;94.60;;;;;;1893486;75;22282;-80
2022/02/16 10:28:29;;;;;;;17.98;13.55;;;24.50;94.80;;;;;;1915891;75;21077;-80
2022/02/16 10:31:02;;;;;;;17.40;13.43;;;24.50;94.90;;;;;;1903195;75;21163;-80
2022/02/16 10:33:35;;;;;;;20.45;13.68;;;24.50;94.90;;;;;;1903535;75;21163;-81
2022/02/16 10:36:18;;;;;;;16.17;14.20;;;24.50;95.10;;;;;;1903236;74;21121;-80
2022/02/16 10:38:45;;;;;;;18.57;12.98;;;24.50;95.10;;;;;;1914366;75;21121;-82
2022/02/16 10:41:16;;;;;;;16.77;13.15;;;24.40;95.30;;;;;;1898667;74;22079;-81
2022/02/16 10:43:50;;;;;;;15.72;13.35;;;24.40;95.30;;;;;;1888360;75;21206;-81
2022/02/16 10:46:22;;;;;;;17.23;13.62;;;24.40;95.30;;;;;;1879474;75;21108;-81
2022/02/16 10:48:57;;;;;;;15.63;12.88;;;24.40;95.40;;;;;;1900806;75;21151;-82
2022/02/16 10:51:28;;;;;;;24.92;17.40;;;24.40;95.40;;;;;;1886046;74;21118;-82
2022/02/16 10:54:01;;;;;;;17.12;13.78;;;24.40;95.50;;;;;;1904262;75;21081;-82
2022/02/16 10:56:32;;;;;;;17.30;12.98;;;24.40;95.60;;;;;;1899241;74;21128;-81
2022/02/16 10:59:11;;;;;;;17.37;13.75;;;24.30;95.70;;;;;;1902888;75;21037;-79
2022/02/16 11:01:45;;;;;;;16.70;14.28;;;24.30;95.80;;;;;;1808286;77;21132;-80
2022/02/16 11:04:17;;;;;;;17.48;14.10;;;24.30;95.80;;;;;;1901629;74;21111;-80
2022/02/16 11:06:50;;;;;;;17.35;13.98;;;24.30;95.80;;;;;;1914161;75;21147;-81
2022/02/16 11:09:26;;;;;;;19.12;14.87;;;24.30;96.20;;;;;;1913151;75;21196;-81
2022/02/16 11:12:01;;;;;;;17.25;14.80;;;24.20;95.80;;;;;;1890300;75;21104;-80
2022/02/16 11:14:33;;;;;;;16.80;13.93;;;24.20;96.00;;;;;;1902315;75;21568;-80
2022/02/16 11:17:09;;;;;;;18.23;13.50;;;24.20;96.10;;;;;;1884583;75;21217;-80
2022/02/16 11:19:38;;;;;;;16.40;13.48;;;24.20;96.20;;;;;;1889172;75;21075;-80
2022/02/16 11:22:13;;;;;;;16.40;13.43;;;24.20;96.20;;;;;;1844899;77;21175;-80
2022/02/16 11:24:46;;;;;;;14.18;12.78;;;24.20;96.20;;;;;;1836441;78;21189;-78
2022/02/16 11:27:19;;;;;;;16.80;14.95;;;24.20;96.30;;;;;;1811907;77;21201;-80
2022/02/16 11:29:50;;;;;;;17.00;14.13;;;24.30;96.20;;;;;;1883816;75;21230;-81
2022/02/16 11:32:24;;;;;;;18.75;15.65;;;24.30;96.30;;;;;;1884401;75;21159;-81
2022/02/16 11:34:57;;;;;;;17.27;15.20;;;24.20;96.40;;;;;;1870451;76;21132;-79
2022/02/16 11:37:30;;;;;;;20.30;16.60;;;24.20;96.40;;;;;;1880109;75;21635;-79
2022/02/16 11:40:02;;;;;;;19.62;16.82;;;24.20;96.50;;;;;;1893958;75;21120;-79
2022/02/16 11:42:35;;;;;;;21.42;16.95;;;24.10;96.60;;;;;;1881906;75;21172;-79
2022/02/16 11:45:09;;;;;;;22.60;16.55;;;24.10;96.70;;;;;;1886519;75;21062;-80
2022/02/16 11:47:45;;;;;;;19.15;16.17;;;24.10;96.80;;;;;;1888318;75;21131;-80
2022/02/16 11:50:19;;;;;;;24.15;17.98;;;24.00;96.90;;;;;;1885905;75;21701;-80
2022/02/16 11:52:55;;;;;;;24.05;18.92;;;24.00;97.00;;;;;;1884343;75;21221;-80
2022/02/16 11:55:28;;;;;;;24.30;16.80;;;24.00;97.10;;;;;;1868196;76;21088;-80
2022/02/16 11:58:01;;;;;;;21.48;16.30;;;24.00;97.20;;;;;;1876061;75;21064;-80
2022/02/16 12:00:36;;;;;;;19.45;15.18;;;24.00;97.20;;;;;;1895096;74;21244;-78
2022/02/16 12:03:10;;;;;;;18.77;15.18;;;23.90;97.40;;;;;;1878933;75;21136;-81
2022/02/16 12:05:45;;;;;;;20.55;16.97;;;23.90;97.50;;;;;;1895070;75;21109;-79
2022/02/16 12:08:18;;;;;;;21.10;17.00;;;24.00;97.40;;;;;;1902475;74;21190;-79
2022/02/16 12:10:52;;;;;;;20.92;17.57;;;23.90;97.30;;;;;;1887554;75;21089;-79
2022/02/16 12:13:27;;;;;;;18.23;15.18;;;23.90;97.30;;;;;;1885807;75;21205;-80
2022/02/16 12:16:06;;;;;;;20.77;17.37;;;23.90;97.20;;;;;;1895366;75;21543;-80
2022/02/16 12:18:42;;;;;;;21.95;17.45;;;24.00;97.40;;;;;;1878108;75;22285;-80
2022/02/16 12:21:13;;;;;;;20.15;16.82;;;24.00;97.50;;;;;;1893047;75;21462;-79
2022/02/16 12:23:45;;;;;;;20.77;15.88;;;24.00;97.50;;;;;;1890321;74;21642;-80
2022/02/16 12:26:19;;;;;;;18.60;14.83;;;24.00;97.60;;;;;;1884564;75;21176;-80
2022/02/16 12:28:53;;;;;;;18.42;14.65;;;24.00;97.50;;;;;;1890351;75;21673;-80
2022/02/16 12:31:26;;;;;;;18.17;15.35;;;24.00;97.30;;;;;;1894673;74;21244;-79
2022/02/16 12:34:00;;;;;;;22.35;15.83;;;24.00;97.60;;;;;;1887271;75;21117;-80
2022/02/16 12:36:32;;;;;;;19.02;15.20;;;24.00;97.60;;;;;;1885664;75;21706;-80
2022/02/16 12:39:05;;;;;;;17.62;14.90;;;24.00;97.50;;;;;;1883787;75;21152;-80
2022/02/16 12:41:50;;;;;;;18.07;13.83;;;24.00;97.40;;;;;;1866760;76;21136;-80
2022/02/16 12:44:26;;;;;;;20.25;15.45;;;23.90;97.40;;;;;;1897623;75;21117;-81
2022/02/16 12:46:57;;;;;;;16.48;14.33;;;23.90;97.50;;;;;;1893173;75;21129;-80
2022/02/16 12:49:29;;;;;;;18.48;15.90;;;23.90;97.50;;;;;;1882018;75;21607;-80
2022/02/16 12:52:02;;;;;;;24.00;17.65;;;23.90;97.50;;;;;;1854834;77;21738;-80
2022/02/16 12:54:44;;;;;;;18.35;15.90;;;23.90;97.60;;;;;;1842198;77;21111;-79
2022/02/16 12:57:14;;;;;;;21.12;15.90;;;23.90;97.50;;;;;;1888051;75;21678;-80
2022/02/16 13:02:20;;;;;;;20.05;17.35;;;24.00;97.50;;;;;;1888783;75;21101;-80
2022/02/16 13:04:53;;;;;;;19.37;17.12;;;24.00;97.50;;;;;;1885581;75;21075;-80
2022/02/16 13:07:30;;;;;;;19.85;17.75;;;24.00;97.60;;;;;;1890104;75;21225;-80
2022/02/16 13:10:03;;;;;;;18.52;15.78;;;24.00;97.60;;;;;;1888203;75;21066;-80
2022/02/16 13:12:37;;;;;;;18.35;14.28;;;23.90;97.50;;;;;;1887340;75;21178;-79
2022/02/16 13:15:15;;;;;;;16.52;14.13;;;23.90;97.60;;;;;;1885301;75;21131;-79
2022/02/16 13:17:53;;;;;;;19.50;14.38;;;23.90;97.90;;;;;;1887463;75;21933;-80
2022/02/16 13:20:32;;;;;;;17.40;15.48;;;23.90;97.80;;;;;;1827204;78;21728;-79
2022/02/16 13:22:59;;;;;;;16.27;14.13;;;23.90;97.50;;;;;;1825371;76;21107;-80
2022/02/16 13:25:32;;;;;;;16.15;14.45;;;23.90;97.50;;;;;;1889543;75;21371;-81
2022/02/16 13:28:16;;;;;;;20.57;15.70;;;23.90;97.60;;;;;;1879301;75;21686;-81
2022/02/16 13:30:41;;;;;;;17.90;14.40;;;23.80;97.60;;;;;;1871194;75;21120;-79
2022/02/16 13:33:17;;;;;;;16.48;14.58;;;23.80;97.60;;;;;;1884054;75;21222;-81